Time;durP1;ratioP1;P1;durP2;ratioP2;P2;SDS_P1;SDS_P2;PMS_P1;PMS_P2;Temp;Humidity;BMP_temperature;BMP_pressure;BME280_temperature;BME280_humidity;BME280_pressure;Samples;Min_cycle;Max_cycle;Signal;HPM_P1;HPM_P2
2023/10/25 00:00:58;;;;;;;7.60;3.90;;;;;;;9.23;100.00;100142.16;7394778;19;19922;-70
2023/10/25 00:03:27;;;;;;;11.18;3.97;;;;;;;9.21;100.00;100145.03;7394951;19;19923;-70
2023/10/25 00:05:56;;;;;;;9.68;4.20;;;;;;;9.21;100.00;100149.56;7393845;19;19930;-71
2023/10/25 00:08:24;;;;;;;6.55;3.47;;;;;;;9.20;100.00;100147.88;7393547;19;19926;-70
2023/10/25 00:10:53;;;;;;;10.05;3.58;;;;;;;9.19;100.00;100147.06;7394943;19;19919;-70
2023/10/25 00:13:24;;;;;;;9.93;3.67;;;;;;;9.19;100.00;100151.63;7394030;19;20366;-70
2023/10/25 00:15:53;;;;;;;7.15;3.28;;;;;;;9.17;100.00;100142.91;7394737;19;19922;-70
2023/10/25 00:18:24;;;;;;;5.55;3.28;;;;;;;9.16;100.00;100143.91;7395497;19;19951;-70
2023/10/25 00:20:52;;;;;;;7.70;3.42;;;;;;;9.15;100.00;100143.06;7394459;19;19919;-70
2023/10/25 00:23:21;;;;;;;9.52;3.75;;;;;;;9.15;100.00;100145.75;7393922;19;19927;-70
2023/10/25 00:25:51;;;;;;;7.80;3.13;;;;;;;9.14;100.00;100143.28;7393561;19;19914;-70
2023/10/25 00:28:20;;;;;;;6.97;3.30;;;;;;;9.13;100.00;100141.59;7394911;19;19926;-70
2023/10/25 00:30:51;;;;;;;6.45;3.10;;;;;;;9.13;100.00;100146.97;7394777;19;19926;-69
2023/10/25 00:33:20;;;;;;;4.45;3.05;;;;;;;9.10;100.00;100148.19;7394877;19;19934;-70
2023/10/25 00:35:48;;;;;;;4.75;2.80;;;;;;;9.09;100.00;100150.03;7390820;19;19926;-70
2023/10/25 00:38:17;;;;;;;7.18;3.20;;;;;;;9.08;100.00;100153.75;7396023;19;19919;-70
2023/10/25 00:40:45;;;;;;;9.40;3.58;;;;;;;9.07;100.00;100149.38;7392585;19;19922;-70
2023/10/25 00:43:19;;;;;;;6.10;3.13;;;;;;;9.05;100.00;100146.06;7393679;19;19943;-70
2023/10/25 00:46:08;;;;;;;11.30;3.10;;;;;;;9.02;100.00;100142.88;7393975;19;21325;-70
2023/10/25 00:48:38;;;;;;;5.65;3.20;;;;;;;9.04;100.00;100143.53;7394529;19;19930;-70
2023/10/25 00:51:07;;;;;;;5.93;3.38;;;;;;;9.01;100.00;100142.06;7390602;19;19919;-71
2023/10/25 00:53:40;;;;;;;6.57;3.03;;;;;;;9.00;100.00;100144.94;7393392;19;20281;-71
2023/10/25 00:56:10;;;;;;;;;;;;;;;8.88;100.00;100147.25;7395928;19;20286;-70
2023/10/25 00:58:40;;;;;;;6.28;2.67;;;;;;;8.96;100.00;100147.16;7392566;19;20621;-70
2023/10/25 01:01:12;;;;;;;7.53;2.70;;;;;;;8.96;100.00;100146.31;7394279;19;19923;-70
2023/10/25 01:03:40;;;;;;;5.60;2.90;;;;;;;8.94;100.00;100142.97;7393241;19;19959;-70
2023/10/25 01:06:09;;;;;;;6.82;3.15;;;;;;;8.92;100.00;100151.22;7393317;19;20275;-70
2023/10/25 01:08:38;;;;;;;5.93;2.92;;;;;;;8.92;100.00;100147.72;7390784;19;20405;-70
2023/10/25 01:11:07;;;;;;;5.78;3.13;;;;;;;8.89;100.00;100146.22;7390756;19;19966;-70
2023/10/25 01:13:36;;;;;;;7.60;3.13;;;;;;;8.87;100.00;100148.25;7393340;19;19933;-70
2023/10/25 01:16:05;;;;;;;9.85;3.10;;;;;;;8.85;100.00;100147.59;7393028;19;20271;-71
2023/10/25 01:18:36;;;;;;;5.65;2.83;;;;;;;8.84;100.00;100140.56;7393111;19;19929;-71
2023/10/25 01:21:04;;;;;;;6.10;2.60;;;;;;;8.83;100.00;100151.50;7392789;19;21027;-70
2023/10/25 01:23:35;;;;;;;9.18;3.15;;;;;;;8.81;100.00;100148.97;7391918;19;19930;-70
2023/10/25 01:26:05;;;;;;;9.00;2.55;;;;;;;8.78;100.00;100146.66;7391375;19;19918;-70
2023/10/25 01:28:33;;;;;;;4.47;2.88;;;;;;;8.78;100.00;100137.78;7390950;19;19923;-70
2023/10/25 01:31:02;;;;;;;6.90;2.88;;;;;;;8.76;100.00;100147.88;7390177;19;19955;-70
2023/10/25 01:33:30;;;;;;;4.53;2.38;;;;;;;8.75;100.00;100147.03;7392047;19;20317;-70
2023/10/25 01:35:59;;;;;;;5.78;2.50;;;;;;;8.74;100.00;100144.53;7389718;19;19933;-70
2023/10/25 01:38:28;;;;;;;3.65;2.25;;;;;;;8.73;100.00;100142.84;7392373;19;19918;-70
2023/10/25 01:40:59;;;;;;;8.32;2.80;;;;;;;8.71;100.00;100139.53;7391455;19;20497;-70
2023/10/25 01:43:28;;;;;;;6.70;3.15;;;;;;;8.71;100.00;100144.91;7390354;19;19955;-70
2023/10/25 01:45:56;;;;;;;6.00;2.92;;;;;;;8.68;100.00;100148.78;7389930;19;19935;-70
2023/10/25 01:48:25;;;;;;;8.18;2.72;;;;;;;8.68;100.00;100143.41;7398840;19;19923;-70
2023/10/25 01:50:55;;;;;;;6.45;2.90;;;;;;;8.68;100.00;100140.72;7397277;19;19918;-70
2023/10/25 01:53:23;;;;;;;5.00;2.50;;;;;;;8.67;100.00;100139.06;7394900;19;19915;-70
2023/10/25 01:55:53;;;;;;;8.18;2.75;;;;;;;8.66;100.00;100148.13;7395799;19;20374;-70
2023/10/25 01:58:24;;;;;;;6.63;3.08;;;;;;;8.63;100.00;100143.94;7398296;19;19923;-70
2023/10/25 02:00:52;;;;;;;5.57;2.60;;;;;;;8.61;100.00;100139.78;7397579;19;19963;-70
2023/10/25 02:03:21;;;;;;;7.55;2.67;;;;;;;8.58;100.00;100141.00;7397781;19;19945;-70
2023/10/25 02:05:49;;;;;;;9.65;3.00;;;;;;;8.58;100.00;100145.53;7396615;19;19942;-70
2023/10/25 02:08:18;;;;;;;7.00;3.50;;;;;;;8.55;100.00;100137.81;7396583;19;19930;-70
2023/10/25 02:10:46;;;;;;;6.30;2.45;;;;;;;8.53;100.00;100145.22;7395364;19;20778;-70
2023/10/25 02:13:15;;;;;;;6.38;2.85;;;;;;;8.51;100.00;100136.50;7396373;19;19952;-70
2023/10/25 02:15:46;;;;;;;5.07;3.05;;;;;;;8.51;100.00;100137.34;7392617;19;19943;-70
2023/10/25 02:18:15;;;;;;;6.57;3.03;;;;;;;8.49;100.00;100133.19;7398182;19;19922;-70
2023/10/25 02:20:43;;;;;;;6.50;2.67;;;;;;;8.48;100.00;100131.53;7397783;19;20287;-70
2023/10/25 02:23:12;;;;;;;10.15;3.20;;;;;;;8.46;100.00;100129.00;7396686;19;19922;-70
2023/10/25 02:25:40;;;;;;;5.18;2.72;;;;;;;8.46;100.00;100122.81;7394804;19;19939;-70
2023/10/25 02:28:10;;;;;;;10.10;3.20;;;;;;;8.44;100.00;100114.13;7398744;19;19932;-70
2023/10/25 02:30:38;;;;;;;8.57;3.50;;;;;;;8.44;100.00;100116.78;7395632;19;20017;-70
2023/10/25 02:33:10;;;;;;;6.25;3.10;;;;;;;8.43;100.00;100110.59;7398060;19;19918;-70
2023/10/25 02:35:38;;;;;;;6.35;3.30;;;;;;;8.43;100.00;100115.13;7390689;19;19954;-70
2023/10/25 02:38:07;;;;;;;6.53;3.25;;;;;;;8.41;100.00;100119.84;7398534;19;19930;-70
2023/10/25 02:40:38;;;;;;;6.15;3.22;;;;;;;8.40;100.00;100126.22;7394030;19;19926;-70
2023/10/25 02:43:06;;;;;;;8.55;3.92;;;;;;;8.36;100.00;100128.44;7396149;19;19918;-70
2023/10/25 02:45:35;;;;;;;7.38;3.38;;;;;;;8.34;100.00;100124.25;7395514;19;19922;-70
2023/10/25 02:48:05;;;;;;;6.55;3.85;;;;;;;8.31;100.00;100125.47;7396750;19;19951;-70
2023/10/25 02:50:39;;;;;;;10.93;3.33;;;;;;;8.28;100.00;100120.44;7396346;19;20605;-70
2023/10/25 02:53:08;;;;;;;7.15;3.50;;;;;;;8.29;100.00;100121.25;7392500;19;19931;-70
2023/10/25 02:55:36;;;;;;;6.35;3.35;;;;;;;8.29;100.00;100124.78;7394849;19;19944;-70
2023/10/25 02:58:05;;;;;;;6.07;3.90;;;;;;;8.28;100.00;100114.22;7394100;19;19925;-70
2023/10/25 03:00:33;;;;;;;9.07;4.40;;;;;;;8.26;100.00;100116.25;7397485;19;19927;-70
2023/10/25 03:03:02;;;;;;;8.57;4.30;;;;;;;8.25;100.00;100117.25;7394349;19;19980;-70
2023/10/25 03:05:31;;;;;;;11.18;4.05;;;;;;;8.24;100.00;100118.28;7394896;19;20442;-70
2023/10/25 03:08:02;;;;;;;8.18;4.05;;;;;;;8.23;100.00;100105.88;7393068;19;19926;-70
2023/10/25 03:10:30;;;;;;;11.68;4.05;;;;;;;8.21;100.00;100109.56;7396103;19;19918;-70
2023/10/25 03:12:59;;;;;;;7.65;3.80;;;;;;;8.20;100.00;100105.22;7396986;19;19922;-70
2023/10/25 03:15:27;;;;;;;8.85;4.15;;;;;;;8.21;100.00;100106.06;7392633;19;19923;-70
2023/10/25 03:17:56;;;;;;;7.93;4.25;;;;;;;8.20;100.00;100113.25;7395358;19;19930;-70
2023/10/25 03:20:25;;;;;;;8.95;4.00;;;;;;;8.18;100.00;100109.09;7392411;19;20578;-70
2023/10/25 03:22:54;;;;;;;6.95;4.15;;;;;;;8.17;100.00;100110.94;7395212;19;19927;-69
2023/10/25 03:25:25;;;;;;;6.90;4.13;;;;;;;8.17;100.00;100104.75;7392365;19;19923;-70
2023/10/25 03:27:53;;;;;;;7.80;3.78;;;;;;;8.16;100.00;100109.28;7397041;19;20358;-70
2023/10/25 03:30:23;;;;;;;7.38;4.05;;;;;;;8.15;100.00;100110.28;7394975;19;19923;-70
2023/10/25 03:32:51;;;;;;;9.63;3.45;;;;;;;8.15;100.00;100099.56;7393389;19;19922;-70
2023/10/25 03:35:20;;;;;;;9.45;3.88;;;;;;;8.13;100.00;100093.53;7394816;19;20315;-70
2023/10/25 03:37:48;;;;;;;6.57;3.70;;;;;;;8.12;100.00;100099.91;7396491;19;19923;-70
2023/10/25 03:40:17;;;;;;;8.48;3.83;;;;;;;8.11;100.00;100100.94;7395815;19;20242;-70
2023/10/25 03:42:48;;;;;;;8.40;3.95;;;;;;;8.11;100.00;100092.88;7396885;19;20266;-70
2023/10/25 03:45:16;;;;;;;9.90;4.13;;;;;;;8.11;100.00;100094.75;7395644;19;19918;-70
2023/10/25 03:47:45;;;;;;;10.52;4.05;;;;;;;8.10;100.00;100096.59;7395980;19;19922;-70
2023/10/25 03:50:14;;;;;;;6.68;3.53;;;;;;;8.09;100.00;100097.59;7395706;19;20638;-71
2023/10/25 03:52:42;;;;;;;6.85;3.60;;;;;;;8.08;100.00;100085.19;7395903;19;19915;-71
2023/10/25 03:55:11;;;;;;;6.13;3.60;;;;;;;8.08;100.00;100082.50;7396319;19;19919;-70
2023/10/25 03:57:39;;;;;;;9.80;3.97;;;;;;;8.07;100.00;100085.38;7393801;19;20412;-70
2023/10/25 04:00:12;;;;;;;9.93;3.70;;;;;;;8.05;100.00;100084.72;7395546;19;19951;-70
2023/10/25 04:02:41;;;;;;;9.13;3.72;;;;;;;8.02;100.00;100085.94;7394746;19;19923;-70
2023/10/25 04:05:10;;;;;;;9.90;3.80;;;;;;;8.01;100.00;100086.94;7394753;19;20003;-70
2023/10/25 04:07:38;;;;;;;5.50;3.70;;;;;;;8.01;100.00;100088.78;7395107;19;19926;-70
2023/10/25 04:10:08;;;;;;;7.00;4.15;;;;;;;8.00;100.00;100085.25;7384719;19;19922;-70
2023/10/25 04:12:37;;;;;;;6.57;3.55;;;;;;;7.97;100.00;100082.13;7389453;19;19947;-70
2023/10/25 04:15:12;;;;;;;5.68;3.17;;;;;;;7.95;100.00;100079.59;7394116;19;19918;-70
2023/10/25 04:17:41;;;;;;;7.13;4.13;;;;;;;7.93;100.00;100078.97;7394034;19;19934;-71
2023/10/25 04:20:11;;;;;;;6.57;3.50;;;;;;;7.92;100.00;100071.94;7394644;19;20652;-70
2023/10/25 04:22:40;;;;;;;8.88;3.55;;;;;;;7.90;100.00;100076.63;7389731;19;20451;-70
2023/10/25 04:25:11;;;;;;;6.10;3.45;;;;;;;7.88;100.00;100081.34;7390987;19;19918;-70
2023/10/25 04:27:40;;;;;;;5.70;3.42;;;;;;;7.89;100.00;100076.81;7388783;19;20393;-70
2023/10/25 04:30:13;;;;;;;5.63;3.17;;;;;;;7.86;100.00;100072.63;7393731;19;20301;-70
2023/10/25 04:32:42;;;;;;;7.28;3.90;;;;;;;7.87;100.00;100081.50;7394132;19;20464;-71
2023/10/25 04:35:11;;;;;;;6.88;3.33;;;;;;;7.85;100.00;100070.97;7389971;19;20254;-70
2023/10/25 04:37:39;;;;;;;5.00;3.15;;;;;;;7.82;100.00;100075.84;7389416;19;19914;-70
2023/10/25 04:40:10;;;;;;;6.10;3.30;;;;;;;7.79;100.00;100069.00;7390376;19;19948;-70
2023/10/25 04:42:38;;;;;;;6.30;3.42;;;;;;;7.76;100.00;100069.38;7394500;19;20409;-70
2023/10/25 04:45:08;;;;;;;4.78;3.33;;;;;;;7.73;100.00;100067.88;7391801;19;19919;-70
2023/10/25 04:47:39;;;;;;;8.23;3.65;;;;;;;7.70;100.00;100075.44;7389830;19;19922;-70
2023/10/25 04:50:08;;;;;;;10.48;3.85;;;;;;;7.67;100.00;100067.75;7390513;19;19931;-70
2023/10/25 04:52:37;;;;;;;7.40;3.22;;;;;;;7.64;100.00;100068.94;7394986;19;19922;-71
2023/10/25 04:55:06;;;;;;;5.40;3.80;;;;;;;7.60;100.00;100067.63;7388721;19;19922;-69
2023/10/25 04:57:36;;;;;;;6.57;3.75;;;;;;;7.55;100.00;100064.63;7388616;19;20442;-69
2023/10/25 05:00:07;;;;;;;5.43;3.50;;;;;;;7.50;100.00;100061.66;7393800;19;19922;-70
2023/10/25 05:02:39;;;;;;;6.65;3.65;;;;;;;7.46;100.00;100062.19;7386974;19;19976;-69
2023/10/25 05:05:09;;;;;;;7.78;3.33;;;;;;;7.43;100.00;100057.16;7389175;19;20560;-70
2023/10/25 05:07:39;;;;;;;12.70;5.15;;;;;;;7.41;100.00;100053.84;7391022;19;19923;-70
2023/10/25 05:10:10;;;;;;;10.52;4.13;;;;;;;7.40;100.00;100052.16;7392884;19;19922;-70
2023/10/25 05:12:41;;;;;;;5.20;3.63;;;;;;;7.37;100.00;100061.41;7389171;19;20600;-70
2023/10/25 05:15:11;;;;;;;7.13;3.47;;;;;;;7.35;100.00;100054.53;7387575;19;19942;-70
2023/10/25 05:17:44;;;;;;;6.43;3.63;;;;;;;7.33;100.00;100052.06;7387028;19;19953;-69
2023/10/25 05:20:14;;;;;;;11.40;3.60;;;;;;;7.33;100.00;100053.91;7388942;19;19923;-70
2023/10/25 05:22:45;;;;;;;7.07;4.05;;;;;;;7.32;100.00;100046.88;7393865;19;20263;-70
2023/10/25 05:25:15;;;;;;;7.90;3.90;;;;;;;7.31;100.00;100054.06;7395105;19;19926;-70
2023/10/25 05:27:44;;;;;;;10.55;4.07;;;;;;;7.29;100.00;100048.88;7394960;19;20360;-70
2023/10/25 05:30:16;;;;;;;7.53;3.63;;;;;;;7.27;100.00;100050.91;7396498;19;19951;-69
2023/10/25 05:32:51;;;;;;;7.70;3.63;;;;;;;7.25;100.00;100052.91;7394500;19;20256;-70
2023/10/25 05:35:21;;;;;;;12.10;4.70;;;;;;;7.24;100.00;100050.44;7393987;19;19939;-70
2023/10/25 05:37:50;;;;;;;5.25;3.63;;;;;;;7.22;100.00;100052.44;7398057;19;19922;-70
2023/10/25 05:40:20;;;;;;;5.70;3.53;;;;;;;7.22;100.00;100053.28;7396169;19;19926;-70
2023/10/25 05:42:50;;;;;;;10.52;4.25;;;;;;;7.20;100.00;100047.28;7398858;19;19947;-69
2023/10/25 05:45:19;;;;;;;10.93;3.90;;;;;;;7.20;100.00;100049.13;7396783;19;19939;-70
2023/10/25 05:47:51;;;;;;;8.75;4.10;;;;;;;7.19;100.00;100052.78;7395020;19;20282;-70
2023/10/25 05:50:20;;;;;;;5.03;3.30;;;;;;;7.19;100.00;100056.31;7398850;19;19930;-69
2023/10/25 05:52:50;;;;;;;8.90;3.92;;;;;;;7.19;100.00;100050.94;7398036;19;19914;-70
2023/10/25 05:55:19;;;;;;;5.25;3.58;;;;;;;7.21;100.00;100059.63;7398916;19;19914;-70
2023/10/25 05:57:48;;;;;;;5.63;3.80;;;;;;;7.20;100.00;100051.78;7396691;19;19935;-68
2023/10/25 06:00:18;;;;;;;8.63;3.38;;;;;;;7.20;100.00;100055.31;7397391;19;19926;-68
2023/10/25 06:02:52;;;;;;;5.85;3.45;;;;;;;7.20;100.00;100058.00;7394882;19;19923;-68
2023/10/25 06:05:21;;;;;;;6.28;3.88;;;;;;;7.20;100.00;100058.00;7395230;19;19927;-68
2023/10/25 06:07:50;;;;;;;5.88;3.33;;;;;;;7.20;100.00;100060.66;7390736;19;21036;-68
2023/10/25 06:10:20;;;;;;;6.07;3.45;;;;;;;7.19;100.00;100059.00;7380256;19;20300;-68
2023/10/25 06:12:49;;;;;;;6.13;3.20;;;;;;;7.20;100.00;100058.00;7393929;19;19923;-68
2023/10/25 06:15:18;;;;;;;5.30;3.03;;;;;;;7.19;100.00;100053.63;7394448;19;19919;-66
2023/10/25 06:17:47;;;;;;;5.28;3.22;;;;;;;7.17;100.00;100057.47;7397683;19;19939;-67
2023/10/25 06:20:19;;;;;;;10.40;3.88;;;;;;;7.15;100.00;100062.19;7398072;19;20002;-66
2023/10/25 06:22:48;;;;;;;6.65;3.15;;;;;;;7.13;100.00;100066.88;7398199;19;19911;-67
2023/10/25 06:25:17;;;;;;;8.02;3.28;;;;;;;7.12;100.00;100063.34;7392603;19;19926;-68
2023/10/25 06:27:45;;;;;;;6.85;3.70;;;;;;;7.13;100.00;100069.56;7395440;19;19976;-68
2023/10/25 06:30:14;;;;;;;4.65;3.10;;;;;;;7.12;100.00;100071.38;7397089;19;19955;-68
2023/10/25 06:32:43;;;;;;;10.00;3.58;;;;;;;7.12;100.00;100070.59;7394624;19;19915;-67
2023/10/25 06:35:12;;;;;;;7.32;3.50;;;;;;;7.10;100.00;100062.72;7398505;19;20006;-67
2023/10/25 06:37:44;;;;;;;5.43;3.42;;;;;;;7.13;100.00;100067.72;7393214;19;19918;-68
2023/10/25 06:40:14;;;;;;;6.13;3.65;;;;;;;7.12;100.00;100063.34;7393622;19;19934;-67
2023/10/25 06:42:43;;;;;;;5.22;3.35;;;;;;;7.13;100.00;100067.72;7396941;19;19918;-67
2023/10/25 06:45:16;;;;;;;8.98;3.65;;;;;;;7.12;100.00;100068.72;7394667;19;20357;-68
2023/10/25 06:47:45;;;;;;;7.47;3.30;;;;;;;7.13;100.00;100065.03;7397261;19;19918;-68
2023/10/25 06:50:17;;;;;;;7.40;3.22;;;;;;;7.14;100.00;100068.56;7395425;19;19948;-68
2023/10/25 06:52:49;;;;;;;7.68;3.13;;;;;;;7.16;100.00;100070.03;7396999;19;19934;-68
2023/10/25 06:55:19;;;;;;;6.50;2.85;;;;;;;7.15;100.00;100068.38;7395218;19;19922;-67
2023/10/25 06:57:48;;;;;;;6.07;3.00;;;;;;;7.18;100.00;100069.88;7395823;19;19958;-67
2023/10/25 07:00:18;;;;;;;5.32;3.63;;;;;;;7.20;100.00;100071.38;7393823;19;19933;-68
2023/10/25 07:02:53;;;;;;;7.05;3.58;;;;;;;7.20;100.00;100067.88;7393923;19;19918;-67
2023/10/25 07:05:23;;;;;;;6.13;3.92;;;;;;;7.23;100.00;100072.88;7396592;19;19922;-67
2023/10/25 07:07:55;;;;;;;6.10;3.38;;;;;;;7.25;100.00;100063.63;7392517;19;19926;-68
2023/10/25 07:10:25;;;;;;;7.50;3.58;;;;;;;7.29;100.00;100064.13;7394669;19;20386;-68
2023/10/25 07:12:54;;;;;;;6.22;3.60;;;;;;;7.33;100.00;100068.13;7395510;19;19918;-67
2023/10/25 07:15:24;;;;;;;6.07;3.42;;;;;;;7.36;100.00;100069.63;7395215;19;19967;-67
2023/10/25 07:17:52;;;;;;;8.52;3.65;;;;;;;7.38;100.00;100068.41;7396004;19;19978;-67
2023/10/25 07:20:21;;;;;;;7.03;3.63;;;;;;;7.42;100.00;100069.72;7393415;19;19952;-68
2023/10/25 07:22:49;;;;;;;5.55;3.17;;;;;;;7.45;100.00;100068.56;7396825;19;19926;-67
2023/10/25 07:25:21;;;;;;;6.57;3.10;;;;;;;7.47;100.00;100067.38;7395829;19;20392;-69
2023/10/25 07:27:49;;;;;;;6.18;3.10;;;;;;;7.50;100.00;100064.34;7395054;19;19918;-68
2023/10/25 07:30:18;;;;;;;7.25;3.45;;;;;;;7.54;100.00;100064.81;7395952;19;19922;-68
2023/10/25 07:32:46;;;;;;;8.77;3.78;;;;;;;7.57;100.00;100064.47;7392859;19;20408;-68
2023/10/25 07:35:16;;;;;;;9.30;4.05;;;;;;;7.60;100.00;100061.41;7395786;19;19925;-68
2023/10/25 07:37:45;;;;;;;5.80;2.72;;;;;;;7.65;100.00;100067.09;7395373;19;19915;-68
2023/10/25 07:40:14;;;;;;;5.57;3.53;;;;;;;7.66;100.00;100058.03;7396671;19;19935;-68
2023/10/25 07:42:46;;;;;;;5.20;3.63;;;;;;;7.68;100.00;100056.00;7396930;19;19959;-68
2023/10/25 07:45:15;;;;;;;7.22;3.47;;;;;;;7.69;100.00;100058.50;7392873;19;19915;-68
2023/10/25 07:47:43;;;;;;;5.93;3.70;;;;;;;7.72;100.00;100057.34;7394422;19;19918;-68
2023/10/25 07:50:17;;;;;;;8.13;3.67;;;;;;;7.76;100.00;100058.66;7394985;19;20467;-68
2023/10/25 07:52:46;;;;;;;7.25;3.78;;;;;;;7.77;100.00;100048.75;7396145;19;19919;-68
2023/10/25 07:55:15;;;;;;;10.68;4.00;;;;;;;7.80;100.00;100054.59;7394242;19;19918;-68
2023/10/25 07:57:46;;;;;;;8.00;4.10;;;;;;;7.84;100.00;100055.06;7394995;19;19951;-68
2023/10/25 08:00:15;;;;;;;8.75;4.10;;;;;;;7.87;100.00;100062.75;7392645;19;20422;-68
2023/10/25 08:02:43;;;;;;;7.35;3.60;;;;;;;7.89;100.00;100066.09;7395625;19;19926;-68
2023/10/25 08:05:12;;;;;;;8.00;3.72;;;;;;;7.94;100.00;100052.97;7395406;19;19919;-68
2023/10/25 08:07:42;;;;;;;6.10;4.00;;;;;;;7.97;100.00;100063.34;7393394;19;19937;-68
2023/10/25 08:10:11;;;;;;;7.45;3.63;;;;;;;8.02;100.00;100055.59;7393068;19;19923;-68
2023/10/25 08:12:40;;;;;;;8.70;4.00;;;;;;;8.06;100.00;100052.38;7393222;19;20429;-68
2023/10/25 08:15:12;;;;;;;7.38;3.70;;;;;;;8.12;100.00;100058.84;7391999;19;20332;-69
2023/10/25 08:17:40;;;;;;;8.55;3.92;;;;;;;8.16;100.00;100052.94;7395180;19;19926;-68
2023/10/25 08:20:10;;;;;;;6.70;4.55;;;;;;;8.21;100.00;100038.97;7395156;19;19914;-68
2023/10/25 08:22:39;;;;;;;9.55;4.43;;;;;;;8.26;100.00;100041.94;7395473;19;19926;-68
2023/10/25 08:25:09;;;;;;;8.38;3.70;;;;;;;8.30;100.00;100029.03;7395496;19;19963;-68
2023/10/25 08:27:38;;;;;;;6.97;3.88;;;;;;;8.34;100.00;100033.00;7395451;19;19929;-68
2023/10/25 08:30:08;;;;;;;7.28;3.85;;;;;;;8.38;100.00;100029.78;7394006;19;19930;-68
2023/10/25 08:32:39;;;;;;;11.13;3.90;;;;;;;8.43;100.00;100023.88;7394338;19;19923;-68
2023/10/25 08:35:08;;;;;;;8.07;4.30;;;;;;;8.47;100.00;100026.00;7391544;19;19922;-68
2023/10/25 08:37:38;;;;;;;10.77;4.43;;;;;;;8.52;100.00;100020.91;7392155;19;19915;-68
2023/10/25 08:40:11;;;;;;;8.32;4.40;;;;;;;8.56;100.00;100019.53;7393381;19;19926;-68
2023/10/25 08:42:40;;;;;;;8.70;4.65;;;;;;;8.63;100.00;100022.28;7392834;19;19919;-68
2023/10/25 08:45:09;;;;;;;9.07;3.83;;;;;;;8.68;100.00;100011.00;7393592;19;19918;-68
2023/10/25 08:47:41;;;;;;;9.02;4.60;;;;;;;8.73;100.00;100011.28;7395554;19;19936;-68
2023/10/25 08:50:10;;;;;;;8.98;3.85;;;;;;;8.79;100.00;100016.75;7392040;19;19923;-68
2023/10/25 08:52:40;;;;;;;8.65;4.15;;;;;;;8.84;100.00;100008.13;7393168;19;19938;-68
2023/10/25 08:55:11;;;;;;;8.98;4.18;;;;;;;8.89;100.00;100009.22;7393935;19;19940;-68
2023/10/25 08:57:40;;;;;;;7.88;4.20;;;;;;;8.96;100.00;100004.78;7400170;19;19922;-68
2023/10/25 09:00:11;;;;;;;8.90;4.15;;;;;;;9.03;100.00;100000.31;7397563;19;19927;-68
2023/10/25 09:02:45;;;;;;;8.35;4.13;;;;;;;9.11;100.00;100005.56;7399351;19;21060;-68
2023/10/25 09:05:13;;;;;;;8.93;4.18;;;;;;;9.17;100.00;100008.53;7399849;19;19937;-68
2023/10/25 09:07:42;;;;;;;10.45;4.65;;;;;;;9.21;100.00;100004.44;7397039;19;19934;-68
2023/10/25 09:10:15;;;;;;;7.60;4.47;;;;;;;9.28;100.00;100013.41;7398397;19;19918;-68
2023/10/25 09:12:44;;;;;;;10.40;4.88;;;;;;;9.32;100.00;100012.03;7399741;19;20389;-68
2023/10/25 09:15:13;;;;;;;9.82;4.47;;;;;;;9.37;100.00;100018.47;7396823;19;19918;-68
2023/10/25 09:17:44;;;;;;;8.02;4.72;;;;;;;9.40;100.00;100012.75;7396494;19;19934;-69
2023/10/25 09:20:12;;;;;;;12.20;5.32;;;;;;;9.44;100.00;100010.50;7397575;19;19919;-68
2023/10/25 09:22:41;;;;;;;6.88;4.57;;;;;;;9.49;100.00;100011.56;7394886;19;20300;-68
2023/10/25 09:25:10;;;;;;;9.23;5.32;;;;;;;9.56;100.00;100006.28;7397661;19;20026;-68
2023/10/25 09:27:44;;;;;;;8.93;5.32;;;;;;;9.61;100.00;100009.25;7397942;19;20325;-68
2023/10/25 09:30:18;;;;;;;10.13;5.15;;;;;;;9.67;100.00;100021.06;7396673;19;19934;-68
2023/10/25 09:32:49;;;;;;;6.90;4.80;;;;;;;9.72;100.00;100008.72;7393910;19;19918;-68
2023/10/25 09:35:17;;;;;;;8.40;5.07;;;;;;;9.75;100.00;100000.25;7395457;19;19927;-68
2023/10/25 09:37:47;;;;;;;8.07;4.70;;;;;;;9.79;100.00;100001.56;7395711;19;19914;-68
2023/10/25 09:40:16;;;;;;;12.48;4.82;;;;;;;9.81;100.00;99993.28;7398584;19;19955;-68
2023/10/25 09:42:48;;;;;;;8.30;5.20;;;;;;;9.84;100.00;99991.03;7398490;19;20361;-68
2023/10/25 09:45:23;;;;;;;10.23;4.50;;;;;;;9.87;100.00;99989.81;7395639;19;19922;-68
2023/10/25 09:47:58;;;;;;;11.05;5.13;;;;;;;9.93;100.00;99995.25;7395957;19;19941;-68
2023/10/25 09:50:34;;;;;;;7.82;5.00;;;;;;;10.00;100.00;99990.78;7399420;19;19919;-68
2023/10/25 09:53:16;;;;;;;7.45;4.80;;;;;;;10.09;100.00;99987.94;7397821;19;19919;-68
2023/10/25 09:55:54;;;;;;;9.45;4.38;;;;;;;10.19;100.00;99991.97;7397039;19;19930;-68
2023/10/25 09:58:25;;;;;;;7.45;4.68;;;;;;;10.30;100.00;99987.91;7399058;19;19930;-68
2023/10/25 10:00:53;;;;;;;7.38;4.20;;;;;;;10.39;100.00;99986.72;7396002;19;19923;-68
2023/10/25 10:03:32;;;;;;;8.65;4.25;;;;;;;10.45;99.90;99988.63;7397451;19;19918;-68
2023/10/25 10:06:09;;;;;;;6.80;4.30;;;;;;;10.55;99.78;99981.03;7397137;19;19947;-68
2023/10/25 10:08:46;;;;;;;8.15;5.13;;;;;;;10.65;99.29;99972.59;7396399;19;19965;-68
2023/10/25 10:11:19;;;;;;;5.63;3.90;;;;;;;10.75;98.44;99967.66;7397603;19;19959;-68
2023/10/25 10:13:47;;;;;;;8.55;4.60;;;;;;;10.82;97.84;99969.38;7396470;19;19923;-68
2023/10/25 10:16:18;;;;;;;5.88;4.03;;;;;;;10.93;97.32;99962.56;7397074;19;19944;-68
2023/10/25 10:18:52;;;;;;;7.93;3.63;;;;;;;11.02;97.08;99961.34;7398247;19;19926;-68
2023/10/25 10:21:20;;;;;;;6.80;3.25;;;;;;;11.12;96.37;99955.56;7395016;19;19949;-69
2023/10/25 10:23:50;;;;;;;10.35;3.67;;;;;;;11.22;96.34;99942.53;7397923;19;19943;-68
2023/10/25 10:26:49;;;;;;;8.18;3.53;;;;;;;11.34;97.49;99943.63;7397192;19;19948;-68
2023/10/25 10:29:39;;;;;;;6.53;3.63;;;;;;;11.47;95.64;99945.50;7398559;19;19919;-68
2023/10/25 10:32:09;;;;;;;6.63;3.78;;;;;;;11.59;96.14;99939.28;7395750;19;19915;-68
2023/10/25 10:34:47;;;;;;;7.85;3.63;;;;;;;11.64;95.97;99936.81;7396796;19;19934;-68
2023/10/25 10:37:17;;;;;;;8.15;4.03;;;;;;;11.73;95.95;99934.75;7397120;19;19930;-68
2023/10/25 10:40:14;;;;;;;7.07;3.20;;;;;;;11.77;94.65;99933.31;7397018;19;19927;-68
2023/10/25 10:42:43;;;;;;;5.28;3.25;;;;;;;11.88;95.65;99929.13;7395772;19;19926;-68
2023/10/25 10:45:17;;;;;;;5.40;3.35;;;;;;;12.03;94.67;99921.66;7396166;19;19944;-69
2023/10/25 10:47:50;;;;;;;7.45;3.30;;;;;;;12.21;94.43;99922.66;7395242;19;19970;-68
2023/10/25 10:50:23;;;;;;;5.28;2.97;;;;;;;12.37;92.83;99921.41;7389610;19;19952;-67
2023/10/25 10:52:53;;;;;;;5.35;2.80;;;;;;;12.55;92.95;99905.34;7390514;19;19922;-68
2023/10/25 10:55:23;;;;;;;4.25;2.90;;;;;;;12.63;92.57;99910.50;7392422;19;19926;-67
2023/10/25 10:57:52;;;;;;;7.22;3.28;;;;;;;12.72;92.71;99898.44;7393054;19;19927;-67
2023/10/25 11:00:21;;;;;;;6.10;3.05;;;;;;;12.82;92.60;99897.09;7395944;19;19948;-67
2023/10/25 11:02:51;;;;;;;8.07;3.08;;;;;;;12.86;91.09;99904.56;7395198;19;19947;-69
2023/10/25 11:05:23;;;;;;;4.05;2.80;;;;;;;12.93;91.54;99905.38;7395697;19;19952;-68
2023/10/25 11:07:53;;;;;;;5.30;2.60;;;;;;;12.92;91.25;99897.47;7387062;19;19972;-67
2023/10/25 11:10:22;;;;;;;5.10;2.42;;;;;;;12.86;90.38;99888.34;7389448;19;19922;-67
2023/10/25 11:12:51;;;;;;;3.22;2.70;;;;;;;12.79;90.72;99892.97;7389106;19;20564;-67
2023/10/25 11:15:24;;;;;;;6.28;2.72;;;;;;;12.76;92.27;99887.19;7391293;19;19926;-67
2023/10/25 11:17:52;;;;;;;4.65;2.63;;;;;;;12.71;91.37;99888.66;7391266;19;20460;-68
2023/10/25 11:20:24;;;;;;;5.00;2.80;;;;;;;12.71;91.92;99885.13;7386075;19;20360;-68
2023/10/25 11:22:53;;;;;;;5.30;2.75;;;;;;;12.71;92.31;99879.72;7373599;19;19927;-67
2023/10/25 11:25:24;;;;;;;5.82;2.97;;;;;;;12.72;91.51;99879.50;7382549;19;19914;-68
2023/10/25 11:27:55;;;;;;;4.03;2.53;;;;;;;12.72;90.63;99890.31;7392722;19;20358;-67
2023/10/25 11:30:25;;;;;;;6.15;3.03;;;;;;;12.69;90.42;99893.44;7386420;19;19922;-67
2023/10/25 11:32:55;;;;;;;4.75;2.50;;;;;;;12.65;90.83;99885.97;7384116;19;19933;-67
2023/10/25 11:35:28;;;;;;;6.03;2.13;;;;;;;12.60;90.82;99885.75;7388024;19;19926;-68
2023/10/25 11:37:58;;;;;;;4.57;2.13;;;;;;;12.54;90.64;99868.56;7391222;19;20081;-68
2023/10/25 11:40:38;;;;;;;3.63;2.53;;;;;;;12.46;90.52;99860.69;7392947;19;19966;-68